createdAt,value
2023-03-06T00:02:06.192Z,99988.97
2023-03-06T00:04:33.971Z,99983.19
2023-03-06T00:07:01.649Z,99993.78
2023-03-06T00:09:29.359Z,99966.94
2023-03-06T00:11:57.037Z,99952.81
2023-03-06T00:14:24.756Z,99940.97
2023-03-06T00:16:55.856Z,99937.94
2023-03-06T00:19:25.063Z,99917.78
2023-03-06T00:21:52.865Z,99901.53
2023-03-06T00:24:20.486Z,99883.72
2023-03-06T00:26:48.144Z,99859.28
2023-03-06T00:29:15.843Z,99836.84
2023-03-06T00:31:46.402Z,99827.94
2023-03-06T00:34:14.132Z,99818.75
2023-03-06T00:36:43.189Z,99806.03
2023-03-06T00:39:10.812Z,99781.88
2023-03-06T00:41:38.506Z,99767.25
2023-03-06T00:44:06.507Z,99748.09
2023-03-06T00:46:34.146Z,99746.66
2023-03-06T00:49:01.901Z,99740.78
2023-03-06T00:51:29.698Z,99724.59
2023-03-06T00:53:58.777Z,99707.69
2023-03-06T00:56:27.017Z,99689.81
2023-03-06T00:58:54.819Z,99650.66
2023-03-06T01:01:23.242Z,99675.53
2023-03-06T01:03:51.084Z,99605.75
2023-03-06T01:06:18.770Z,99664.41
2023-03-06T01:08:46.589Z,99614.66
2023-03-06T01:11:15.810Z,99598.25
2023-03-06T01:13:44.270Z,99658.53
2023-03-06T01:16:14.585Z,99657.81
2023-03-06T01:18:43.599Z,99665.59
2023-03-06T01:21:13.718Z,99665.38
2023-03-06T01:23:41.736Z,99671.97
2023-03-06T01:26:09.647Z,99668.59
2023-03-06T01:28:39.240Z,99626.13
2023-03-06T01:31:07.502Z,99652.16
2023-03-06T01:33:35.676Z,99592.91
2023-03-06T01:36:06.422Z,99656.28
2023-03-06T01:38:34.425Z,99635.28
2023-03-06T01:41:04.432Z,99617.63
2023-03-06T01:43:34.340Z,99610.44
2023-03-06T01:46:41.843Z,99567.53
2023-03-06T01:49:15.325Z,99571.28
2023-03-06T01:51:49.428Z,99493.72
2023-03-06T01:54:21.978Z,99483.31
2023-03-06T01:56:53.728Z,99504.69
2023-03-06T01:59:22.936Z,99504.19
2023-03-06T02:01:52.285Z,99486.03
2023-03-06T02:04:20.666Z,99493.72
2023-03-06T02:06:49.281Z,99484.03
2023-03-06T02:09:17.328Z,99470.84
2023-03-06T02:11:46.308Z,99434.78
2023-03-06T02:14:16.757Z,99437.44
2023-03-06T02:16:45.095Z,99423.31
2023-03-06T02:19:37.214Z,99404.03
2023-03-06T02:22:05.153Z,99370.38
2023-03-06T02:24:40.292Z,99326.59
2023-03-06T02:27:12.437Z,99345.31
2023-03-06T02:29:40.211Z,99342.09
2023-03-06T02:32:08.321Z,99314.44
2023-03-06T02:34:54.920Z,99297.72
2023-03-06T02:37:24.579Z,99271.34
2023-03-06T02:39:58.633Z,99276.66
2023-03-06T02:42:29.759Z,99279.38
2023-03-06T02:45:00.195Z,99265.22
2023-03-06T02:47:27.932Z,99258.66
2023-03-06T02:49:55.614Z,99249.94
2023-03-06T02:52:23.236Z,99257.19
2023-03-06T02:54:50.979Z,99242.88
2023-03-06T02:57:18.691Z,99275.06
2023-03-06T02:59:47.705Z,99253.19
2023-03-06T03:02:15.511Z,99262.03
2023-03-06T03:04:43.180Z,99258.28
2023-03-06T03:07:10.877Z,99229.66
2023-03-06T03:09:38.537Z,99243.16
2023-03-06T03:12:06.973Z,99241.84
2023-03-06T03:14:34.599Z,99241.88
2023-03-06T03:17:03.816Z,99235.09
2023-03-06T03:19:31.525Z,99238.81
2023-03-06T03:21:59.232Z,99233.19
2023-03-06T03:24:27.572Z,99242.34
2023-03-06T03:26:55.544Z,99240.25
2023-03-06T03:29:23.250Z,99255.38
2023-03-06T03:31:50.952Z,99253.75
2023-03-06T03:34:20.050Z,99258.28
2023-03-06T03:36:47.912Z,99261.19
2023-03-06T03:39:15.765Z,99262.59
2023-03-06T03:41:43.824Z,99253.75
2023-03-06T03:44:11.717Z,99259.41
2023-03-06T03:46:39.745Z,99244.41
2023-03-06T03:49:07.928Z,99240.06
2023-03-06T03:51:36.947Z,99223.94
2023-03-06T03:54:06.156Z,99223.81
2023-03-06T03:56:34.625Z,99209.84
2023-03-06T03:59:02.367Z,99210.47
2023-03-06T04:01:30.126Z,99194.88
2023-03-06T04:03:57.788Z,99183.25
2023-03-06T04:06:25.586Z,99180.03
2023-03-06T04:08:54.744Z,99104.53
2023-03-06T04:11:22.456Z,99164.41
2023-03-06T04:13:50.167Z,99154.59
2023-03-06T04:16:17.851Z,99147.03
2023-03-06T04:18:45.628Z,99120.34
2023-03-06T04:21:13.285Z,99132.53
2023-03-06T04:23:41.025Z,99108.09
2023-03-06T04:26:10.816Z,99107.56
2023-03-06T04:28:38.456Z,99097.44
2023-03-06T04:31:06.715Z,99075.22
2023-03-06T04:33:35.084Z,99069.78
2023-03-06T04:36:02.797Z,99050.31
2023-03-06T04:38:30.428Z,99034.16
2023-03-06T04:40:58.089Z,99024.75
2023-03-06T04:43:27.271Z,99005.94
2023-03-06T04:45:54.940Z,98991.63
2023-03-06T04:48:22.581Z,98979.44
2023-03-06T04:50:50.214Z,98973.84
2023-03-06T04:53:19.557Z,98961.28
2023-03-06T04:55:47.454Z,98960.81
2023-03-06T04:58:15.560Z,98956.72
2023-03-06T05:00:44.696Z,98948.84
2023-03-06T05:03:14.294Z,98944.56
2023-03-06T05:05:42.203Z,98926.88
2023-03-06T05:08:13.592Z,98920.25
2023-03-06T05:10:41.199Z,98869.97
2023-03-06T05:13:09.045Z,98861.81
2023-03-06T05:15:36.878Z,98877.44
2023-03-06T05:18:06.092Z,98873.94
2023-03-06T05:20:33.788Z,98873.34
2023-03-06T05:23:01.514Z,98856.69
2023-03-06T05:25:29.187Z,98861.91
2023-03-06T05:27:56.977Z,98870.94
2023-03-06T05:30:24.756Z,98870.78
2023-03-06T05:32:52.523Z,98868.38
2023-03-06T05:35:23.302Z,98860.28
2023-03-06T05:37:51.344Z,98885.22
2023-03-06T05:40:20.184Z,98894.00
2023-03-06T05:42:47.888Z,98886.38
2023-03-06T05:45:15.626Z,98751.91
2023-03-06T05:47:43.320Z,98904.94
2023-03-06T05:50:13.951Z,98907.88
2023-03-06T05:52:43.017Z,98904.59
2023-03-06T05:55:13.000Z,98913.72
2023-03-06T05:57:40.752Z,98918.63
2023-03-06T06:00:10.267Z,98925.84
2023-03-06T06:02:38.019Z,98923.06
2023-03-06T06:05:07.066Z,98943.94
2023-03-06T06:07:34.746Z,98952.28
2023-03-06T06:10:04.654Z,98981.94
2023-03-06T06:12:32.717Z,98985.84
2023-03-06T06:15:00.432Z,99004.78
2023-03-06T06:17:28.101Z,98964.13
2023-03-06T06:19:56.049Z,99029.75
2023-03-06T06:22:23.807Z,99029.59
2023-03-06T06:24:51.398Z,99044.25
2023-03-06T06:27:20.444Z,99057.69
2023-03-06T06:29:51.550Z,98972.66
2023-03-06T06:32:19.335Z,99073.47
2023-03-06T06:34:47.096Z,99086.44
2023-03-06T06:37:14.804Z,99083.06
2023-03-06T06:39:42.415Z,99091.66
2023-03-06T06:42:30.212Z,99100.44
2023-03-06T06:44:59.244Z,99087.31
2023-03-06T06:47:27.047Z,99112.03
2023-03-06T06:49:56.513Z,99109.69
2023-03-06T06:52:25.158Z,99128.91
2023-03-06T06:54:53.402Z,99143.22
2023-03-06T06:57:21.695Z,99130.41
2023-03-06T06:59:51.255Z,99155.00
2023-03-06T07:02:21.633Z,99094.97
2023-03-06T07:05:02.932Z,99170.94
2023-03-06T07:07:32.262Z,99171.72
2023-03-06T07:09:59.951Z,99175.91
2023-03-06T07:12:27.681Z,99191.50
2023-03-06T07:14:55.430Z,99173.44
2023-03-06T07:17:24.458Z,99175.38
2023-03-06T07:19:52.148Z,99176.59
2023-03-06T07:22:19.827Z,99205.84
2023-03-06T07:24:48.796Z,99216.00
2023-03-06T07:27:16.351Z,99219.84
2023-03-06T07:29:44.570Z,99226.31
2023-03-06T07:32:12.645Z,99228.34
2023-03-06T07:34:43.079Z,99241.34
2023-03-06T07:37:10.736Z,99223.91
2023-03-06T07:39:38.726Z,99258.63
2023-03-06T07:42:07.816Z,99250.81
2023-03-06T07:44:37.763Z,99205.78
2023-03-06T07:47:06.110Z,99022.38
2023-03-06T07:49:34.026Z,99199.28
2023-03-06T07:52:03.358Z,99230.56
2023-03-06T07:54:32.793Z,99231.56
2023-03-06T07:57:00.573Z,99235.50
2023-03-06T07:59:28.355Z,99246.97
2023-03-06T08:01:57.380Z,99252.94
2023-03-06T08:04:25.099Z,99265.25
2023-03-06T08:06:53.480Z,99272.91
2023-03-06T08:09:22.754Z,99254.84
2023-03-06T08:11:50.407Z,99293.16
2023-03-06T08:14:18.133Z,99307.97
2023-03-06T08:16:45.969Z,99322.19
2023-03-06T08:19:13.684Z,99335.91
2023-03-06T08:21:41.452Z,99353.13
2023-03-06T08:24:09.431Z,99372.16
2023-03-06T08:26:38.501Z,99365.06
2023-03-06T08:29:08.056Z,99401.16
2023-03-06T08:31:38.065Z,99416.44
2023-03-06T08:34:09.371Z,99410.06
2023-03-06T08:36:37.537Z,99437.78
2023-03-06T08:39:06.023Z,99445.13
2023-03-06T08:41:34.857Z,99479.28
2023-03-06T08:44:03.879Z,99489.28
2023-03-06T08:46:33.379Z,99488.31
2023-03-06T08:49:01.226Z,99487.75
2023-03-06T08:51:29.642Z,99532.81
2023-03-06T08:53:58.374Z,99584.88
2023-03-06T08:56:28.100Z,99592.72
2023-03-06T08:58:56.853Z,99619.72
2023-03-06T09:01:27.400Z,99654.28
2023-03-06T09:03:56.202Z,99698.13
2023-03-06T09:06:24.946Z,99712.56
2023-03-06T09:08:53.107Z,99752.06
2023-03-06T09:11:22.555Z,99803.03
2023-03-06T09:13:50.305Z,99837.16
2023-03-06T09:16:18.286Z,99834.91
2023-03-06T09:18:49.849Z,99866.19
2023-03-06T09:21:17.761Z,99777.75
2023-03-06T09:23:46.048Z,99850.38
2023-03-06T09:26:14.198Z,99888.03
2023-03-06T09:28:42.157Z,99916.69
2023-03-06T09:31:11.353Z,99933.78
2023-03-06T09:33:39.844Z,99981.03
2023-03-06T09:36:11.548Z,99934.69
2023-03-06T09:38:39.505Z,100001.09
2023-03-06T09:41:09.901Z,100014.19
2023-03-06T09:43:40.591Z,100004.31
2023-03-06T09:46:17.916Z,100066.41
2023-03-06T09:48:56.805Z,100077.44
2023-03-06T09:51:31.804Z,100103.47
2023-03-06T09:54:07.549Z,100165.28
2023-03-06T09:56:37.104Z,100191.31
2023-03-06T09:59:14.133Z,100226.75
2023-03-06T10:01:46.169Z,100254.41
2023-03-06T10:04:37.295Z,100288.13
2023-03-06T10:07:12.792Z,100271.03
2023-03-06T10:09:46.112Z,100270.72
2023-03-06T10:12:26.359Z,100284.63
2023-03-06T10:15:07.722Z,100298.03
2023-03-06T10:17:38.557Z,100305.00
2023-03-06T10:20:21.629Z,100308.53
2023-03-06T10:23:11.128Z,100286.84
2023-03-06T10:25:50.351Z,100233.88
2023-03-06T10:28:22.529Z,100254.16
2023-03-06T10:30:58.020Z,100291.16
2023-03-06T10:33:39.741Z,100308.03
2023-03-06T10:36:07.698Z,100325.59
2023-03-06T10:38:38.295Z,100334.44
2023-03-06T10:41:14.926Z,100333.97
2023-03-06T10:43:44.469Z,100324.06
2023-03-06T10:46:15.750Z,100327.47
2023-03-06T10:48:44.644Z,100351.66
2023-03-06T10:51:19.317Z,100356.88
2023-03-06T10:53:55.428Z,100315.47
2023-03-06T10:56:32.520Z,100245.53
2023-03-06T10:59:13.285Z,100322.94
2023-03-06T11:01:43.694Z,100317.31
2023-03-06T11:04:24.838Z,100335.00
2023-03-06T11:07:13.752Z,100341.94
2023-03-06T11:09:43.795Z,100330.31
2023-03-06T11:12:22.439Z,100317.16
2023-03-06T11:15:09.447Z,100336.91
2023-03-06T11:17:39.094Z,100331.50
2023-03-06T11:20:22.124Z,100310.56
2023-03-06T11:22:52.462Z,100313.28
2023-03-06T11:25:25.784Z,100312.09
2023-03-06T11:27:58.749Z,100292.28
2023-03-06T11:30:34.280Z,100300.56
2023-03-06T11:33:05.511Z,100320.50
2023-03-06T11:35:41.327Z,100329.97
2023-03-06T11:38:15.392Z,100275.09
2023-03-06T11:40:50.853Z,100308.88
2023-03-06T11:43:23.321Z,100345.72
2023-03-06T11:45:59.015Z,100315.44
2023-03-06T11:48:33.357Z,100307.06
2023-03-06T11:51:07.965Z,100299.84
2023-03-06T11:53:39.058Z,100281.41
2023-03-06T11:56:22.851Z,100294.78
2023-03-06T11:59:19.624Z,100193.28
2023-03-06T12:02:00.398Z,100278.47
2023-03-06T12:04:50.892Z,100315.66
2023-03-06T12:07:26.489Z,100297.22
2023-03-06T12:10:06.325Z,100291.56
2023-03-06T12:13:07.320Z,100287.06
2023-03-06T12:15:54.264Z,100273.28
2023-03-06T12:18:36.109Z,100087.22
2023-03-06T12:21:08.446Z,100240.03
2023-03-06T12:24:04.672Z,100243.59
2023-03-06T12:26:49.294Z,100231.75
2023-03-06T12:29:35.037Z,100231.63
2023-03-06T12:32:14.819Z,100181.22
2023-03-06T12:35:01.040Z,100265.72
2023-03-06T12:37:40.271Z,100254.72
2023-03-06T12:40:31.591Z,100240.91
2023-03-06T12:43:21.648Z,100241.47
2023-03-06T12:45:52.567Z,100238.44
2023-03-06T12:48:26.599Z,100221.22
2023-03-06T12:50:55.034Z,100223.22
2023-03-06T12:53:28.321Z,100206.25
2023-03-06T12:55:58.244Z,100207.56
2023-03-06T12:58:37.264Z,100195.94
2023-03-06T13:01:12.448Z,100188.25
2023-03-06T13:04:04.984Z,100173.72
2023-03-06T13:06:51.672Z,100029.22
2023-03-06T13:09:23.625Z,100155.84
2023-03-06T13:12:16.357Z,100152.97
2023-03-06T13:14:58.652Z,100139.47
2023-03-06T13:17:33.399Z,100154.50
2023-03-06T13:20:36.279Z,100144.41
2023-03-06T13:23:43.266Z,100154.69
2023-03-06T13:26:12.903Z,100132.69
2023-03-06T13:28:45.010Z,100126.06
2023-03-06T13:31:26.368Z,100114.09
2023-03-06T13:33:58.703Z,100105.16
2023-03-06T13:36:30.720Z,100107.09
2023-03-06T13:39:06.480Z,100042.03
2023-03-06T13:41:57.688Z,100083.56
2023-03-06T13:44:52.286Z,100077.34
2023-03-06T13:47:32.109Z,100075.16
2023-03-06T13:50:00.695Z,100066.44
2023-03-06T13:52:40.759Z,100057.19
2023-03-06T13:55:19.657Z,100064.31
2023-03-06T13:58:02.205Z,100046.25
2023-03-06T14:00:52.065Z,99927.06
2023-03-06T14:04:00.602Z,100076.53
2023-03-06T14:07:02.948Z,100100.25
2023-03-06T14:09:36.399Z,100100.50
2023-03-06T14:12:08.254Z,100102.72
2023-03-06T14:14:42.756Z,100107.84
2023-03-06T14:17:22.299Z,100135.13
2023-03-06T14:19:51.337Z,100129.59
2023-03-06T14:22:24.563Z,100123.00
2023-03-06T14:24:58.864Z,100153.41
2023-03-06T14:27:49.894Z,100136.81
2023-03-06T14:30:24.229Z,100127.69
2023-03-06T14:32:56.337Z,100110.81
2023-03-06T14:35:28.971Z,99938.34
2023-03-06T14:38:00.166Z,100072.72
2023-03-06T14:40:32.827Z,100087.25
2023-03-06T14:43:22.000Z,100077.19
2023-03-06T14:45:51.788Z,100073.13
2023-03-06T14:48:20.032Z,100084.22
2023-03-06T14:50:50.653Z,100064.31
2023-03-06T14:53:22.461Z,100048.94
2023-03-06T14:55:54.226Z,100036.97
2023-03-06T14:58:28.700Z,100017.56
2023-03-06T15:00:58.746Z,100006.25
2023-03-06T15:03:42.441Z,99996.72
2023-03-06T15:06:12.578Z,99974.59
2023-03-06T15:08:43.595Z,99949.38
2023-03-06T15:11:12.808Z,99946.75
2023-03-06T15:13:41.304Z,99943.53
2023-03-06T15:16:24.225Z,99956.47
2023-03-06T15:18:59.580Z,99956.28
2023-03-06T15:21:28.655Z,99934.50
2023-03-06T15:23:58.235Z,99953.22
2023-03-06T15:26:31.310Z,99953.56
2023-03-06T15:29:09.114Z,99945.97
2023-03-06T15:31:38.735Z,99990.25
2023-03-06T15:34:23.537Z,99989.47
2023-03-06T15:36:55.329Z,99981.84
2023-03-06T15:39:35.694Z,99976.34
2023-03-06T15:42:17.993Z,99958.41
2023-03-06T15:44:49.772Z,99993.16
2023-03-06T15:47:18.131Z,99999.00
2023-03-06T15:49:46.014Z,100009.84
2023-03-06T15:52:13.667Z,99997.06
2023-03-06T15:54:41.412Z,99921.91
2023-03-06T15:57:20.230Z,100011.75
2023-03-06T15:59:47.735Z,100016.97
2023-03-06T16:02:17.712Z,99943.38
2023-03-06T16:04:46.024Z,100026.81
2023-03-06T16:07:14.492Z,100026.31
2023-03-06T16:09:42.723Z,99975.69
2023-03-06T16:12:17.391Z,100016.63
2023-03-06T16:14:45.501Z,100014.66
2023-03-06T16:17:13.683Z,100002.50
2023-03-06T16:19:42.009Z,99989.75
2023-03-06T16:22:09.796Z,99977.78
2023-03-06T16:24:37.749Z,99964.38
2023-03-06T16:27:06.869Z,99947.03
2023-03-06T16:29:36.101Z,99933.97
2023-03-06T16:32:04.545Z,99915.69
2023-03-06T16:34:32.225Z,99913.00
2023-03-06T16:36:59.886Z,99914.47
2023-03-06T16:39:27.578Z,99908.44
2023-03-06T16:41:56.362Z,99897.97
2023-03-06T16:44:24.028Z,99908.94
2023-03-06T16:46:53.113Z,99873.09
2023-03-06T16:49:21.463Z,99868.09
2023-03-06T16:51:49.477Z,99853.72
2023-03-06T16:54:17.220Z,99828.53
2023-03-06T16:56:45.725Z,99643.06
2023-03-06T16:59:13.613Z,99774.63
2023-03-06T17:01:43.598Z,99755.75
2023-03-06T17:04:12.728Z,99736.84
2023-03-06T17:06:41.853Z,99719.25
2023-03-06T17:09:10.831Z,99716.03
2023-03-06T17:11:39.497Z,99711.66
2023-03-06T17:14:07.239Z,99714.22
2023-03-06T17:16:37.013Z,99722.31
2023-03-06T17:19:04.859Z,99712.97
2023-03-06T17:21:35.411Z,99699.41
2023-03-06T17:24:04.785Z,99711.81
2023-03-06T17:26:32.398Z,99707.28
2023-03-06T17:29:00.324Z,99686.50
2023-03-06T17:31:29.310Z,99694.56
2023-03-06T17:34:01.709Z,99685.84
2023-03-06T17:36:30.418Z,99678.72
2023-03-06T17:39:00.767Z,99664.53
2023-03-06T17:41:28.901Z,99586.16
2023-03-06T17:43:58.376Z,99635.47
2023-03-06T17:46:26.798Z,99598.59
2023-03-06T17:48:54.600Z,99586.94
2023-03-06T17:51:22.417Z,99551.31
2023-03-06T17:53:52.100Z,99520.00
2023-03-06T17:56:21.207Z,99494.03
2023-03-06T17:58:48.941Z,99470.63
2023-03-06T18:01:19.124Z,99430.69
2023-03-06T18:03:48.940Z,99321.72
2023-03-06T18:06:17.566Z,99371.31
2023-03-06T18:08:45.802Z,99291.19
2023-03-06T18:11:13.800Z,99240.97
2023-03-06T18:13:46.338Z,99208.41
2023-03-06T18:16:15.951Z,99243.50
2023-03-06T18:18:44.058Z,99214.63
2023-03-06T18:21:14.032Z,99139.13
2023-03-06T18:23:42.586Z,99121.47
2023-03-06T18:26:12.917Z,99077.38
2023-03-06T18:28:44.565Z,99032.13
2023-03-06T18:31:16.696Z,98951.13
2023-03-06T18:33:44.558Z,98928.06
2023-03-06T18:36:12.509Z,98882.63
2023-03-06T18:38:41.466Z,98815.34
2023-03-06T18:41:09.709Z,98785.81
2023-03-06T18:43:38.374Z,98734.03
2023-03-06T18:46:08.092Z,98640.03
2023-03-06T18:48:35.933Z,98662.72
2023-03-06T18:51:08.323Z,98631.88
2023-03-06T18:53:36.911Z,98430.13
2023-03-06T18:56:06.008Z,98550.72
2023-03-06T18:58:33.896Z,98488.72
2023-03-06T19:01:08.476Z,98488.34
2023-03-06T19:03:36.524Z,98455.81
2023-03-06T19:06:06.424Z,98288.66
2023-03-06T19:08:34.627Z,98396.09
2023-03-06T19:11:03.574Z,98370.13
2023-03-06T19:13:31.273Z,98351.50
2023-03-06T19:15:59.248Z,98329.69
2023-03-06T19:18:29.666Z,98305.69
2023-03-06T19:21:08.003Z,98288.56
2023-03-06T19:23:35.738Z,98114.88
2023-03-06T19:26:03.408Z,98251.16
2023-03-06T19:28:31.055Z,98083.44
2023-03-06T19:30:58.742Z,98217.03
2023-03-06T19:33:27.824Z,98234.31
2023-03-06T19:35:55.503Z,98193.69
2023-03-06T19:38:23.232Z,98175.25
2023-03-06T19:40:51.436Z,98179.84
2023-03-06T19:43:19.209Z,98169.31
2023-03-06T19:45:47.157Z,98141.97
2023-03-06T19:48:14.870Z,98139.41
2023-03-06T19:50:43.969Z,98135.03
2023-03-06T19:53:12.166Z,98101.31
2023-03-06T19:55:40.242Z,98092.38
2023-03-06T19:58:08.640Z,98099.34
2023-03-06T20:00:36.680Z,98075.34
2023-03-06T20:03:04.628Z,98066.06
2023-03-06T20:05:32.337Z,98052.56
2023-03-06T20:08:01.397Z,98020.84
2023-03-06T20:10:29.155Z,98003.38
2023-03-06T20:12:56.978Z,97846.63
2023-03-06T20:15:24.705Z,97939.97
2023-03-06T20:17:52.416Z,97894.78
2023-03-06T20:20:20.300Z,97944.09
2023-03-06T20:22:48.007Z,97935.00
2023-03-06T20:25:17.197Z,97890.94
2023-03-06T20:27:45.165Z,97866.78
2023-03-06T20:30:13.518Z,97807.69
2023-03-06T20:32:41.236Z,97645.69
2023-03-06T20:35:09.512Z,97773.91
2023-03-06T20:37:37.206Z,97647.81
2023-03-06T20:40:06.285Z,97676.34
2023-03-06T20:42:35.591Z,97666.16
2023-03-06T20:45:03.783Z,97651.66
2023-03-06T20:47:31.683Z,97634.19
2023-03-06T20:49:59.714Z,97615.28
2023-03-06T20:52:27.517Z,97587.28
2023-03-06T20:54:55.790Z,97580.47
2023-03-06T20:57:23.642Z,97550.69
2023-03-06T20:59:52.838Z,97536.72
2023-03-06T21:02:20.801Z,97516.22
2023-03-06T21:04:48.886Z,97514.03
2023-03-06T21:07:17.058Z,97494.06
2023-03-06T21:09:44.886Z,97471.72
2023-03-06T21:12:12.789Z,97455.94
2023-03-06T21:14:40.748Z,97443.72
2023-03-06T21:17:09.881Z,97439.16
2023-03-06T21:19:37.763Z,97401.19
2023-03-06T21:22:05.420Z,97393.22
2023-03-06T21:24:33.066Z,97398.03
2023-03-06T21:27:00.754Z,97378.31
2023-03-06T21:29:28.456Z,97362.69
2023-03-06T21:31:56.172Z,97360.91
2023-03-06T21:34:25.338Z,97186.47
2023-03-06T21:36:53.082Z,96978.44
2023-03-06T21:39:21.008Z,96944.31
2023-03-06T21:41:48.734Z,96972.81
2023-03-06T21:44:16.478Z,96991.44
2023-03-06T21:46:44.276Z,97021.72
2023-03-06T21:49:12.096Z,97033.56
2023-03-06T21:51:41.613Z,97082.91
2023-03-06T21:54:09.731Z,97102.19
2023-03-06T21:56:37.522Z,97131.47
2023-03-06T21:59:05.354Z,97151.00
2023-03-06T22:01:33.076Z,97186.91
2023-03-06T22:04:01.076Z,97208.78
2023-03-06T22:06:30.341Z,97231.44
2023-03-06T22:09:00.497Z,97252.63
2023-03-06T22:11:31.053Z,97255.22
2023-03-06T22:13:59.028Z,97283.03
2023-03-06T22:16:26.890Z,97168.66
2023-03-06T22:18:54.636Z,97305.47
2023-03-06T22:21:24.220Z,97323.50
2023-03-06T22:23:52.954Z,97316.13
2023-03-06T22:26:22.350Z,97328.31
2023-03-06T22:28:50.429Z,97295.44
2023-03-06T22:31:20.048Z,97279.81
2023-03-06T22:33:48.025Z,97334.53
2023-03-06T22:36:16.624Z,97335.81
2023-03-06T22:38:46.603Z,97210.13
2023-03-06T22:41:15.713Z,97343.53
2023-03-06T22:43:44.956Z,97358.75
2023-03-06T22:46:14.251Z,97352.38
2023-03-06T22:48:42.509Z,97353.81
2023-03-06T22:51:12.883Z,97297.22
2023-03-06T22:53:41.309Z,97338.50
2023-03-06T22:56:12.404Z,97352.63
2023-03-06T22:58:40.787Z,97356.56
2023-03-06T23:01:11.666Z,97362.94
2023-03-06T23:03:41.464Z,97369.13
2023-03-06T23:06:10.782Z,97367.78
2023-03-06T23:08:38.874Z,97300.59
2023-03-06T23:11:09.992Z,97236.59
2023-03-06T23:13:38.222Z,97356.63
2023-03-06T23:16:07.107Z,97376.41
2023-03-06T23:18:36.667Z,97380.56
2023-03-06T23:21:07.802Z,97373.97
2023-03-06T23:23:35.544Z,97384.53
2023-03-06T23:26:03.736Z,97386.53
2023-03-06T23:28:31.672Z,97380.50
2023-03-06T23:30:59.420Z,97397.16
2023-03-06T23:33:27.129Z,97400.66
2023-03-06T23:35:56.297Z,97392.78
2023-03-06T23:38:24.099Z,97401.31
2023-03-06T23:40:51.775Z,97393.84
2023-03-06T23:43:19.829Z,97356.28
2023-03-06T23:45:54.009Z,97401.78
2023-03-06T23:48:22.093Z,97402.59
2023-03-06T23:50:49.916Z,97354.34
2023-03-06T23:53:19.069Z,97399.13
2023-03-06T23:55:48.962Z,97222.28
2023-03-06T23:58:18.165Z,97386.72
